Sankoumaru 31 — JD2200 — position and weather

sailwx.info

Track history (hours):
 
Tides and Currents Weather Stations Pressure Air Temp Water Temp Dewpoint Dewpoint Depression Visibility Wind Speed Wind Dir Waves Ship Positions

Sankoumaru 31

Last reported at 2016-Jul-25 21:28 UTC. Time now 2016-Jul-25 22:02 UTC.
Position N 35°41' E 139°57'.

Length 75 m; draft 5 m.

Type: Cargo ship. MMSI: 431501842.

Date/timePositionNaut miles runAvg speedWind from/ knotsBaromVisibWave heightAir tempDewpointWater temp
2016-Jul-25 21:28N 35°41' E 139°57'0 0.0
2016-Jul-25 20:28N 35°41' E 139°57'0 0.0
2016-Jul-25 19:28N 35°41' E 139°57'0 0.0
2016-Jul-25 18:28N 35°41' E 139°57'0 0.0
2016-Jul-25 17:22N 35°41' E 139°57'0 0.0
2016-Jul-25 16:28N 35°41' E 139°57'0 0.0
2016-Jul-25 15:10N 35°41' E 139°57'0 0.0
2016-Jul-25 13:04N 35°41' E 139°57'0 0.0
2016-Jul-25 12:28N 35°41' E 139°57'0 0.0
2016-Jul-25 11:28N 35°41' E 139°57'0 0.0
2016-Jul-25 10:28N 35°41' E 139°57'0 0.0
2016-Jul-25 09:28N 35°41' E 139°57'0 0.0
2016-Jul-25 08:22N 35°41' E 139°57'0 0.0
2016-Jul-25 07:28N 35°41' E 139°57'3 3.5
2016-Jul-25 06:33N 35°38' E 139°59'1 0.7
2016-Jul-25 05:24N 35°37' E 139°58'0 0.1
2016-Jul-25 04:33N 35°37' E 139°58'0 0.0
2016-Jul-25 03:27N 35°37' E 139°58'0 0.0
2016-Jul-25 02:33N 35°37' E 139°58'0 0.3
2016-Jul-25 01:33N 35°37' E 139°58'1111.4
2016-Jul-25 00:34N 35°28' E 139°50'1110.8
2016-Jul-24 23:34N 35°18' E 139°44'1010.3
2016-Jul-24 22:33N 35°08' E 139°43'25210.0
2016-Jul-23 21:17N 34°06' E 134°46'  
2016-Jul-20 22:06N 34°12' E 134°53'812.1
2016-Jul-20 21:27N 34°14' E 135°02'4 4.6
2016-Jul-20 20:33N 34°14' E 135°07'0 0.0
2016-Jul-20 19:32N 34°14' E 135°07'0 0.0
2016-Jul-20 18:29N 34°14' E 135°07'0 0.0
2016-Jul-20 17:32N 34°14' E 135°07'0 0.0
2016-Jul-20 15:32N 34°14' E 135°07'0 0.0
2016-Jul-20 14:32N 34°14' E 135°07'1 1.1
2016-Jul-20 13:28N 34°15' E 135°06'0 0.0
2016-Jul-20 12:31N 34°15' E 135°06'0 0.0
2016-Jul-20 11:31N 34°15' E 135°06'0 0.1
2016-Jul-20 10:31N 34°15' E 135°06'0 0.1
2016-Jul-20 09:31N 34°15' E 135°06'5 4.7
2016-Jul-20 08:28N 34°19' E 135°04'1213.0
2016-Jul-20 07:33N 34°28' E 135°14'1312.8
2016-Jul-20 06:33N 34°38' E 135°24'3 3.3
2016-Jul-20 05:30N 34°39' E 135°28'0 0.0
2016-Jul-20 04:30N 34°39' E 135°28'0 0.0
2016-Jul-20 03:24N 34°39' E 135°28'2 0.5
2016-Jul-19 22:33N 34°39' E 135°25'5 5.0
2016-Jul-19 21:32N 34°34' E 135°22'4 0.2
2016-Jul-19 07:08N 34°31' E 135°24'0 0.0
2016-Jul-18 04:23N 34°31' E 135°24'0 0.0
2016-Jul-18 01:17N 34°31' E 135°24'0 0.0
2016-Jul-17 23:29N 34°31' E 135°24'0 0.0
2016-Jul-17 20:29N 34°31' E 135°24'0 0.0
2016-Jul-17 19:29N 34°31' E 135°24'0 0.0
2016-Jul-17 18:29N 34°31' E 135°24'0 0.0
2016-Jul-17 17:23N 34°31' E 135°24'0 0.0
2016-Jul-17 16:17N 34°31' E 135°24'0 0.0
2016-Jul-17 15:29N 34°31' E 135°24'0 0.0
2016-Jul-17 14:29N 34°31' E 135°24'0 0.0
2016-Jul-17 13:17N 34°31' E 135°24'0 0.0
2016-Jul-17 12:17N 34°31' E 135°24'0 0.0
2016-Jul-17 11:29N 34°31' E 135°24'0 0.0
2016-Jul-17 10:17N 34°31' E 135°24'0 0.0
2016-Jul-17 09:29N 34°31' E 135°24'0 0.0
2016-Jul-17 03:25N 34°31' E 135°24'6 6.9
2016-Jul-17 02:33N 34°30' E 135°17'2110.2
2016-Jul-17 00:28N 34°12' E 135°03'238 9.2
2016-Jul-15 22:33N 35°09' E 139°43'1111.1
2016-Jul-15 21:32N 35°21' E 139°42'  
Track history (hours):
 
Tides and Currents Weather Stations Pressure Air Temp Water Temp Dewpoint Dewpoint Depression Visibility Wind Speed Wind Dir Waves Ship Positions

Sankoumaru 31

Last reported at 2016-Jul-25 21:28 UTC. Time now 2016-Jul-25 22:02 UTC.
Position N 35°41' E 139°57'.

Length 75 m; draft 5 m.

Type: Cargo ship. MMSI: 431501842.

Date/timePositionNaut miles runAvg speedWind from/ knotsBaromVisibWave heightAir tempDewpointWater temp
2016-Jul-25 21:28N 35°41' E 139°57'0 0.0
2016-Jul-25 20:28N 35°41' E 139°57'0 0.0
2016-Jul-25 19:28N 35°41' E 139°57'0 0.0
2016-Jul-25 18:28N 35°41' E 139°57'0 0.0
2016-Jul-25 17:22N 35°41' E 139°57'0 0.0
2016-Jul-25 16:28N 35°41' E 139°57'0 0.0
2016-Jul-25 15:10N 35°41' E 139°57'0 0.0
2016-Jul-25 13:04N 35°41' E 139°57'0 0.0
2016-Jul-25 12:28N 35°41' E 139°57'0 0.0
2016-Jul-25 11:28N 35°41' E 139°57'0 0.0
2016-Jul-25 10:28N 35°41' E 139°57'0 0.0
2016-Jul-25 09:28N 35°41' E 139°57'0 0.0
2016-Jul-25 08:22N 35°41' E 139°57'0 0.0
2016-Jul-25 07:28N 35°41' E 139°57'3 3.5
2016-Jul-25 06:33N 35°38' E 139°59'1 0.7
2016-Jul-25 05:24N 35°37' E 139°58'0 0.1
2016-Jul-25 04:33N 35°37' E 139°58'0 0.0
2016-Jul-25 03:27N 35°37' E 139°58'0 0.0
2016-Jul-25 02:33N 35°37' E 139°58'0 0.3
2016-Jul-25 01:33N 35°37' E 139°58'1111.4
2016-Jul-25 00:34N 35°28' E 139°50'1110.8
2016-Jul-24 23:34N 35°18' E 139°44'1010.3
2016-Jul-24 22:33N 35°08' E 139°43'25210.0
2016-Jul-23 21:17N 34°06' E 134°46'  
2016-Jul-20 22:06N 34°12' E 134°53'812.1
2016-Jul-20 21:27N 34°14' E 135°02'4 4.6
2016-Jul-20 20:33N 34°14' E 135°07'0 0.0
2016-Jul-20 19:32N 34°14' E 135°07'0 0.0
2016-Jul-20 18:29N 34°14' E 135°07'0 0.0
2016-Jul-20 17:32N 34°14' E 135°07'0 0.0
2016-Jul-20 15:32N 34°14' E 135°07'0 0.0
2016-Jul-20 14:32N 34°14' E 135°07'1 1.1
2016-Jul-20 13:28N 34°15' E 135°06'0 0.0
2016-Jul-20 12:31N 34°15' E 135°06'0 0.0
2016-Jul-20 11:31N 34°15' E 135°06'0 0.1
2016-Jul-20 10:31N 34°15' E 135°06'0 0.1
2016-Jul-20 09:31N 34°15' E 135°06'5 4.7
2016-Jul-20 08:28N 34°19' E 135°04'1213.0
2016-Jul-20 07:33N 34°28' E 135°14'1312.8
2016-Jul-20 06:33N 34°38' E 135°24'3 3.3
2016-Jul-20 05:30N 34°39' E 135°28'0 0.0
2016-Jul-20 04:30N 34°39' E 135°28'0 0.0
2016-Jul-20 03:24N 34°39' E 135°28'2 0.5
2016-Jul-19 22:33N 34°39' E 135°25'5 5.0
2016-Jul-19 21:32N 34°34' E 135°22'4 0.2
2016-Jul-19 07:08N 34°31' E 135°24'0 0.0
2016-Jul-18 04:23N 34°31' E 135°24'0 0.0
2016-Jul-18 01:17N 34°31' E 135°24'0 0.0
2016-Jul-17 23:29N 34°31' E 135°24'0 0.0
2016-Jul-17 20:29N 34°31' E 135°24'0 0.0
2016-Jul-17 19:29N 34°31' E 135°24'0 0.0
2016-Jul-17 18:29N 34°31' E 135°24'0 0.0
2016-Jul-17 17:23N 34°31' E 135°24'0 0.0
2016-Jul-17 16:17N 34°31' E 135°24'0 0.0
2016-Jul-17 15:29N 34°31' E 135°24'0 0.0
2016-Jul-17 14:29N 34°31' E 135°24'0 0.0
2016-Jul-17 13:17N 34°31' E 135°24'0 0.0
2016-Jul-17 12:17N 34°31' E 135°24'0 0.0
2016-Jul-17 11:29N 34°31' E 135°24'0 0.0
2016-Jul-17 10:17N 34°31' E 135°24'0 0.0
2016-Jul-17 09:29N 34°31' E 135°24'0 0.0
2016-Jul-17 03:25N 34°31' E 135°24'6 6.9
2016-Jul-17 02:33N 34°30' E 135°17'2110.2
2016-Jul-17 00:28N 34°12' E 135°03'238 9.2
2016-Jul-15 22:33N 35°09' E 139°43'1111.1
2016-Jul-15 21:32N 35°21' E 139°42'  

Dump ship's entire track history